createdAt,value
2018-12-09T00:00:14.856Z,11.60
2018-12-09T00:02:43.309Z,11.60
2018-12-09T00:05:11.444Z,11.60
2018-12-09T00:07:39.528Z,11.60
2018-12-09T00:10:08.028Z,11.60
2018-12-09T00:12:36.120Z,11.60
2018-12-09T00:15:04.501Z,11.60
2018-12-09T00:17:32.750Z,11.60
2018-12-09T00:20:00.880Z,11.60
2018-12-09T00:22:29.044Z,11.60
2018-12-09T00:24:57.129Z,11.60
2018-12-09T00:27:25.348Z,11.60
2018-12-09T00:29:53.507Z,11.60
2018-12-09T00:32:21.765Z,11.60
2018-12-09T00:34:49.941Z,11.60
2018-12-09T00:37:18.160Z,11.60
2018-12-09T00:39:46.614Z,11.60
2018-12-09T00:42:14.686Z,11.60
2018-12-09T00:44:42.744Z,11.70
2018-12-09T00:47:10.975Z,11.70
2018-12-09T00:49:39.211Z,11.70
2018-12-09T00:52:07.361Z,11.70
2018-12-09T00:54:35.757Z,11.70
2018-12-09T00:57:03.967Z,11.80
2018-12-09T00:59:32.053Z,11.80
2018-12-09T01:02:04.476Z,11.80
2018-12-09T01:04:32.692Z,11.80
2018-12-09T01:07:00.862Z,11.80
2018-12-09T01:09:29.296Z,11.90
2018-12-09T01:11:57.591Z,11.90
2018-12-09T01:14:25.764Z,11.90
2018-12-09T01:16:54.285Z,11.90
2018-12-09T01:19:22.437Z,11.90
2018-12-09T01:21:50.569Z,11.90
2018-12-09T01:24:18.893Z,11.90
2018-12-09T01:26:47.108Z,11.90
2018-12-09T01:29:15.292Z,11.90
2018-12-09T01:31:43.896Z,11.90
2018-12-09T01:34:12.121Z,11.90
2018-12-09T01:36:40.292Z,11.90
2018-12-09T01:39:08.592Z,11.90
2018-12-09T01:41:36.830Z,11.90
2018-12-09T01:44:05.042Z,11.80
2018-12-09T01:46:33.852Z,11.80
2018-12-09T01:49:02.029Z,11.80
2018-12-09T01:51:30.374Z,11.80
2018-12-09T01:54:14.290Z,11.80
2018-12-09T01:56:42.591Z,11.80
2018-12-09T01:59:10.809Z,11.70
2018-12-09T02:01:39.622Z,11.70
2018-12-09T02:04:08.152Z,11.70
2018-12-09T02:06:36.469Z,11.70
2018-12-09T02:09:07.606Z,11.70
2018-12-09T02:11:36.240Z,11.70
2018-12-09T02:14:04.765Z,11.70
2018-12-09T02:16:33.770Z,11.70
2018-12-09T02:19:14.752Z,11.70
2018-12-09T02:21:43.432Z,11.70
2018-12-09T02:24:11.720Z,11.70
2018-12-09T02:26:39.940Z,11.70
2018-12-09T02:29:08.761Z,11.70
2018-12-09T02:31:37.005Z,11.70
2018-12-09T02:34:05.264Z,11.70
2018-12-09T02:36:34.344Z,11.70
2018-12-09T02:39:04.476Z,11.70
2018-12-09T02:41:32.894Z,11.70
2018-12-09T02:44:01.415Z,11.70
2018-12-09T02:46:29.728Z,11.70
2018-12-09T02:48:57.926Z,11.70
2018-12-09T02:51:26.250Z,11.70
2018-12-09T02:53:54.546Z,11.70
2018-12-09T02:56:22.772Z,11.70
2018-12-09T02:58:51.664Z,11.70
2018-12-09T03:01:19.954Z,11.70
2018-12-09T03:03:48.185Z,11.70
2018-12-09T03:06:16.348Z,11.70
2018-12-09T03:08:44.588Z,11.70
2018-12-09T03:11:12.744Z,11.70
2018-12-09T03:13:41.240Z,11.70
2018-12-09T03:16:09.470Z,11.80
2018-12-09T03:18:37.728Z,11.80
2018-12-09T03:21:06.003Z,11.80
2018-12-09T03:23:34.212Z,11.80
2018-12-09T03:26:02.585Z,11.80
2018-12-09T03:28:30.668Z,11.80
2018-12-09T03:30:58.849Z,11.80
2018-12-09T03:33:27.176Z,11.90
2018-12-09T03:35:55.813Z,11.90
2018-12-09T03:38:24.221Z,11.90
2018-12-09T03:40:52.449Z,11.90
2018-12-09T03:43:20.761Z,11.90
2018-12-09T03:45:48.978Z,11.90
2018-12-09T03:48:17.150Z,11.90
2018-12-09T03:50:45.302Z,11.90
2018-12-09T03:53:13.466Z,11.90
2018-12-09T03:55:41.812Z,11.90
2018-12-09T03:58:10.407Z,11.90
2018-12-09T04:00:38.650Z,11.90
2018-12-09T04:03:06.947Z,11.90
2018-12-09T04:05:35.211Z,11.90
2018-12-09T04:08:03.811Z,11.90
2018-12-09T04:10:31.977Z,11.80
2018-12-09T04:13:00.468Z,11.80
2018-12-09T04:15:28.785Z,11.80
2018-12-09T04:17:56.932Z,11.80
2018-12-09T04:20:25.823Z,11.70
2018-12-09T04:22:54.044Z,11.80
2018-12-09T04:25:22.264Z,11.70
2018-12-09T04:27:50.840Z,11.70
2018-12-09T04:30:19.205Z,11.70
2018-12-09T04:32:47.364Z,11.70
2018-12-09T04:35:15.614Z,11.70
2018-12-09T04:37:43.845Z,11.70
2018-12-09T04:40:12.127Z,11.70
2018-12-09T04:42:40.509Z,11.70
2018-12-09T04:45:08.709Z,11.70
2018-12-09T04:47:36.783Z,11.70
2018-12-09T04:50:06.556Z,11.70
2018-12-09T04:52:34.697Z,11.70
2018-12-09T04:55:03.386Z,11.70
2018-12-09T04:57:31.892Z,11.70
2018-12-09T05:00:11.678Z,11.70
2018-12-09T05:02:39.949Z,11.70
2018-12-09T05:05:08.436Z,11.60
2018-12-09T05:07:36.652Z,11.60
2018-12-09T05:10:05.676Z,11.60
2018-12-09T05:12:34.192Z,11.60
2018-12-09T05:15:02.425Z,11.60
2018-12-09T05:17:30.653Z,11.60
2018-12-09T05:19:58.814Z,11.50
2018-12-09T05:22:27.035Z,11.50
2018-12-09T05:24:55.636Z,11.50
2018-12-09T05:27:23.788Z,11.50
2018-12-09T05:29:51.936Z,11.50
2018-12-09T05:32:20.159Z,11.50
2018-12-09T05:34:48.300Z,11.50
2018-12-09T05:37:16.588Z,11.50
2018-12-09T05:39:44.773Z,11.50
2018-12-09T05:42:12.896Z,11.50
2018-12-09T05:44:41.085Z,11.50
2018-12-09T05:47:09.612Z,11.50
2018-12-09T05:49:37.689Z,11.50
2018-12-09T05:52:05.832Z,11.50
2018-12-09T05:54:34.056Z,11.40
2018-12-09T05:57:02.288Z,11.40
2018-12-09T05:59:30.568Z,11.40
2018-12-09T06:03:04.561Z,11.40
2018-12-09T06:05:32.732Z,11.40
2018-12-09T06:08:00.888Z,11.40
2018-12-09T06:10:29.350Z,11.40
2018-12-09T06:12:57.509Z,11.40
2018-12-09T06:15:25.810Z,11.40
2018-12-09T06:17:54.334Z,11.40
2018-12-09T06:20:22.496Z,11.40
2018-12-09T06:22:50.724Z,11.40
2018-12-09T06:25:19.406Z,11.40
2018-12-09T06:27:47.648Z,11.40
2018-12-09T06:30:16.132Z,11.40
2018-12-09T06:32:44.464Z,11.40
2018-12-09T06:35:13.510Z,11.40
2018-12-09T06:37:41.888Z,11.40
2018-12-09T06:40:10.563Z,11.40
2018-12-09T06:42:38.858Z,11.40
2018-12-09T06:45:07.228Z,11.40
2018-12-09T06:47:35.485Z,11.40
2018-12-09T06:50:04.856Z,11.40
2018-12-09T06:52:33.055Z,11.40
2018-12-09T06:55:01.232Z,11.40
2018-12-09T06:57:29.510Z,11.40
2018-12-09T06:59:57.733Z,11.40
2018-12-09T07:02:26.012Z,11.40
2018-12-09T07:04:54.232Z,11.40
2018-12-09T07:07:22.776Z,11.40
2018-12-09T07:09:50.961Z,11.40
2018-12-09T07:12:19.276Z,11.40
2018-12-09T07:14:47.441Z,11.40
2018-12-09T07:17:16.084Z,11.40
2018-12-09T07:19:44.429Z,11.40
2018-12-09T07:22:12.665Z,11.40
2018-12-09T07:24:41.320Z,11.40
2018-12-09T07:27:09.536Z,11.40
2018-12-09T07:29:37.760Z,11.40
2018-12-09T07:32:06.257Z,11.40
2018-12-09T07:34:34.395Z,11.40
2018-12-09T07:37:02.671Z,11.40
2018-12-09T07:39:30.823Z,11.40
2018-12-09T07:41:59.077Z,11.40
2018-12-09T07:44:27.644Z,11.40
2018-12-09T07:46:55.886Z,11.30
2018-12-09T07:49:24.153Z,11.30
2018-12-09T07:51:52.280Z,11.30
2018-12-09T07:54:20.410Z,11.30
2018-12-09T07:56:48.606Z,11.30
2018-12-09T07:59:16.672Z,11.30
2018-12-09T08:01:44.834Z,11.30
2018-12-09T08:04:12.960Z,11.30
2018-12-09T08:06:41.168Z,11.30
2018-12-09T08:09:09.604Z,11.30
2018-12-09T08:11:37.816Z,11.30
2018-12-09T08:14:05.896Z,11.30
2018-12-09T08:16:34.990Z,11.30
2018-12-09T08:19:03.232Z,11.40
2018-12-09T08:21:31.445Z,11.40
2018-12-09T08:23:59.608Z,11.40
2018-12-09T08:26:27.797Z,11.40
2018-12-09T08:28:55.925Z,11.40
2018-12-09T08:31:24.472Z,11.40
2018-12-09T08:33:52.540Z,11.40
2018-12-09T08:36:20.669Z,11.40
2018-12-09T08:38:49.062Z,11.40
2018-12-09T08:41:17.149Z,11.30
2018-12-09T08:43:45.265Z,11.30
2018-12-09T08:46:13.633Z,11.20
2018-12-09T08:48:41.725Z,11.20
2018-12-09T08:51:09.785Z,11.20
2018-12-09T08:53:38.252Z,11.20
2018-12-09T08:56:06.461Z,11.20
2018-12-09T08:58:34.597Z,11.10
2018-12-09T09:01:02.742Z,11.10
2018-12-09T09:03:30.825Z,11.10
2018-12-09T09:05:59.072Z,11.10
2018-12-09T09:08:27.156Z,11.00
2018-12-09T09:10:55.292Z,11.00
2018-12-09T09:13:23.448Z,11.00
2018-12-09T09:15:51.617Z,11.00
2018-12-09T09:18:19.704Z,11.00
2018-12-09T09:20:47.858Z,11.00
2018-12-09T09:23:16.096Z,11.00
2018-12-09T09:25:44.431Z,11.00
2018-12-09T09:28:12.508Z,11.00
2018-12-09T09:30:40.706Z,11.00
2018-12-09T09:33:11.216Z,10.90
2018-12-09T09:35:39.356Z,10.90
2018-12-09T09:38:07.496Z,10.90
2018-12-09T09:40:35.636Z,10.90
2018-12-09T09:43:03.768Z,10.90
2018-12-09T09:45:32.361Z,10.90
2018-12-09T09:48:00.417Z,10.90
2018-12-09T09:50:28.808Z,10.90
2018-12-09T09:52:56.888Z,10.90
2018-12-09T09:55:24.956Z,10.90
2018-12-09T09:57:53.043Z,10.90
2018-12-09T10:00:21.492Z,10.90
2018-12-09T10:02:49.775Z,10.90
2018-12-09T10:05:17.970Z,10.90
2018-12-09T10:07:46.040Z,10.90
2018-12-09T10:10:14.173Z,10.90
2018-12-09T10:12:42.260Z,11.00
2018-12-09T10:15:10.408Z,11.00
2018-12-09T10:17:38.483Z,11.00
2018-12-09T10:20:07.134Z,11.00
2018-12-09T10:22:35.197Z,11.00
2018-12-09T10:25:03.497Z,11.10
2018-12-09T10:27:31.735Z,11.10
2018-12-09T10:29:59.882Z,11.10
2018-12-09T10:32:28.002Z,11.20
2018-12-09T10:34:56.273Z,11.20
2018-12-09T10:37:24.358Z,11.20
2018-12-09T10:39:52.585Z,11.20
2018-12-09T10:42:20.877Z,11.30
2018-12-09T10:44:49.073Z,11.30
2018-12-09T10:47:17.224Z,11.30
2018-12-09T10:49:45.315Z,11.30
2018-12-09T10:52:13.463Z,11.30
2018-12-09T10:54:41.633Z,11.30
2018-12-09T10:57:09.906Z,11.40
2018-12-09T10:59:37.972Z,11.40
2018-12-09T11:02:11.649Z,11.40
2018-12-09T11:04:39.819Z,11.40
2018-12-09T11:07:08.025Z,11.40
2018-12-09T11:09:36.086Z,11.50
2018-12-09T11:12:04.236Z,11.50
2018-12-09T11:14:32.380Z,11.50
2018-12-09T11:17:00.557Z,11.50
2018-12-09T11:19:29.137Z,11.50
2018-12-09T11:21:57.448Z,11.50
2018-12-09T11:24:25.505Z,11.50
2018-12-09T11:26:53.716Z,11.50
2018-12-09T11:29:21.849Z,11.50
2018-12-09T11:31:50.077Z,11.50
2018-12-09T11:34:18.300Z,11.50
2018-12-09T11:36:46.357Z,11.60
2018-12-09T11:39:14.525Z,11.60
2018-12-09T11:41:42.676Z,11.60
2018-12-09T11:44:10.821Z,11.60
2018-12-09T11:46:39.102Z,11.60
2018-12-09T11:49:07.213Z,11.60
2018-12-09T11:51:35.436Z,11.70
2018-12-09T11:54:03.704Z,11.70
2018-12-09T11:56:31.819Z,11.70
2018-12-09T11:59:00.009Z,11.70
2018-12-09T12:01:28.207Z,11.80
2018-12-09T12:03:56.372Z,11.80
2018-12-09T12:06:24.528Z,11.80
2018-12-09T12:08:52.661Z,11.90
2018-12-09T12:11:20.966Z,11.90
2018-12-09T12:13:49.108Z,11.90
2018-12-09T12:16:17.192Z,12.00
2018-12-09T12:18:45.357Z,12.00
2018-12-09T12:21:13.510Z,12.00
2018-12-09T12:23:41.604Z,12.00
2018-12-09T12:26:10.045Z,12.00
2018-12-09T12:28:38.301Z,12.10
2018-12-09T12:31:06.582Z,12.10
2018-12-09T12:33:34.780Z,12.20
2018-12-09T12:36:02.924Z,12.20
2018-12-09T12:38:31.025Z,12.30
2018-12-09T12:40:59.222Z,12.40
2018-12-09T12:43:27.429Z,12.40
2018-12-09T12:45:55.696Z,12.40
2018-12-09T12:48:24.897Z,12.50
2018-12-09T12:50:53.129Z,12.50
2018-12-09T12:53:21.281Z,12.50
2018-12-09T12:55:49.758Z,12.50
2018-12-09T12:58:17.824Z,12.50
2018-12-09T13:00:46.020Z,12.50
2018-12-09T13:03:14.144Z,12.50
2018-12-09T13:05:42.348Z,12.50
2018-12-09T13:08:11.158Z,12.50
2018-12-09T13:10:39.719Z,12.40
2018-12-09T13:13:07.914Z,12.40
2018-12-09T13:15:36.110Z,12.40
2018-12-09T13:18:04.781Z,12.40
2018-12-09T13:20:32.973Z,12.40
2018-12-09T13:23:01.277Z,12.40
2018-12-09T13:25:29.789Z,12.40
2018-12-09T13:27:57.976Z,12.40
2018-12-09T13:30:26.145Z,12.50
2018-12-09T13:32:54.741Z,12.50
2018-12-09T13:35:22.864Z,12.50
2018-12-09T13:37:52.669Z,12.50
2018-12-09T13:40:21.292Z,12.50
2018-12-09T13:42:49.570Z,12.50
2018-12-09T13:45:17.773Z,12.50
2018-12-09T13:47:46.317Z,12.40
2018-12-09T13:50:14.464Z,12.40
2018-12-09T13:52:42.516Z,12.40
2018-12-09T13:55:11.159Z,12.40
2018-12-09T13:57:39.253Z,12.40
2018-12-09T14:00:09.377Z,12.40
2018-12-09T14:02:37.535Z,12.30
2018-12-09T14:05:05.917Z,12.30
2018-12-09T14:07:34.196Z,12.30
2018-12-09T14:10:02.278Z,12.20
2018-12-09T14:12:30.437Z,12.20
2018-12-09T14:14:58.511Z,12.20
2018-12-09T14:17:26.985Z,12.10
2018-12-09T14:19:55.149Z,12.10
2018-12-09T14:22:23.289Z,12.00
2018-12-09T14:24:51.525Z,11.90
2018-12-09T14:27:19.872Z,11.90
2018-12-09T14:29:48.033Z,11.80
2018-12-09T14:32:16.457Z,11.80
2018-12-09T14:34:44.516Z,11.70
2018-12-09T14:37:12.732Z,11.70
2018-12-09T14:39:41.160Z,11.70
2018-12-09T14:42:09.296Z,11.60
2018-12-09T14:44:38.858Z,11.60
2018-12-09T14:47:07.620Z,11.60
2018-12-09T14:49:35.756Z,11.50
2018-12-09T14:52:04.077Z,11.50
2018-12-09T14:54:32.357Z,11.40
2018-12-09T14:57:00.572Z,11.40
2018-12-09T14:59:28.679Z,11.40
2018-12-09T15:01:57.292Z,11.30
2018-12-09T15:04:25.538Z,11.30
2018-12-09T15:06:54.368Z,11.30
2018-12-09T15:09:22.964Z,11.20
2018-12-09T15:11:51.046Z,11.20
2018-12-09T15:14:19.313Z,11.20
2018-12-09T15:16:47.945Z,11.10
2018-12-09T15:19:16.194Z,11.10
2018-12-09T15:21:44.348Z,11.10
2018-12-09T15:24:12.857Z,11.00
2018-12-09T15:26:40.995Z,11.00
2018-12-09T15:29:09.086Z,11.00
2018-12-09T15:31:37.623Z,11.00
2018-12-09T15:34:05.822Z,11.00
2018-12-09T15:36:34.004Z,10.90
2018-12-09T15:39:02.157Z,10.90
2018-12-09T15:41:30.228Z,10.90
2018-12-09T15:43:58.561Z,10.90
2018-12-09T15:46:27.068Z,10.90
2018-12-09T15:48:55.141Z,10.90
2018-12-09T15:51:23.445Z,10.90
2018-12-09T15:53:51.914Z,10.90
2018-12-09T15:56:20.064Z,10.90
2018-12-09T15:58:48.140Z,10.80
2018-12-09T16:01:16.667Z,10.80
2018-12-09T16:03:44.929Z,10.80
2018-12-09T16:06:13.129Z,10.80
2018-12-09T16:08:41.776Z,10.80
2018-12-09T16:11:09.925Z,10.80
2018-12-09T16:13:38.009Z,10.70
2018-12-09T16:16:06.169Z,10.70
2018-12-09T16:18:34.332Z,10.70
2018-12-09T16:21:02.493Z,10.70
2018-12-09T16:23:31.069Z,10.70
2018-12-09T16:25:59.218Z,10.60
2018-12-09T16:28:27.300Z,10.60
2018-12-09T16:30:55.506Z,10.60
2018-12-09T16:33:23.719Z,10.60
2018-12-09T16:35:51.871Z,10.60
2018-12-09T16:38:20.133Z,10.60
2018-12-09T16:40:48.280Z,10.60
2018-12-09T16:43:16.448Z,10.60
2018-12-09T16:45:44.902Z,10.60
2018-12-09T16:48:13.121Z,10.60
2018-12-09T16:50:41.249Z,10.60
2018-12-09T16:53:09.387Z,10.60
2018-12-09T16:55:37.677Z,10.60
2018-12-09T16:58:05.749Z,10.50
2018-12-09T17:00:33.941Z,10.50
2018-12-09T17:03:02.109Z,10.50
2018-12-09T17:05:30.258Z,10.50
2018-12-09T17:07:58.339Z,10.50
2018-12-09T17:10:26.484Z,10.50
2018-12-09T17:12:54.621Z,10.50
2018-12-09T17:15:23.117Z,10.50
2018-12-09T17:17:51.288Z,10.40
2018-12-09T17:20:19.565Z,10.40
2018-12-09T17:22:47.665Z,10.40
2018-12-09T17:25:15.870Z,10.40
2018-12-09T17:27:44.013Z,10.40
2018-12-09T17:30:12.157Z,10.40
2018-12-09T17:32:40.236Z,10.30
2018-12-09T17:35:08.483Z,10.30
2018-12-09T17:37:36.885Z,10.30
2018-12-09T17:40:06.412Z,10.30
2018-12-09T17:42:34.557Z,10.30
2018-12-09T17:45:03.215Z,10.20
2018-12-09T17:47:31.538Z,10.20
2018-12-09T17:49:59.760Z,10.20
2018-12-09T17:52:28.180Z,10.20
2018-12-09T17:54:56.317Z,10.10
2018-12-09T17:57:24.400Z,10.10
2018-12-09T17:59:52.561Z,10.10
2018-12-09T18:02:20.761Z,10.00
2018-12-09T18:04:48.884Z,10.00
2018-12-09T18:07:16.977Z,10.00
2018-12-09T18:09:45.169Z,9.90
2018-12-09T18:12:13.389Z,9.90
2018-12-09T18:14:41.913Z,9.90
2018-12-09T18:17:10.056Z,9.90
2018-12-09T18:19:38.277Z,9.80
2018-12-09T18:22:06.500Z,9.80
2018-12-09T18:24:34.713Z,9.80
2018-12-09T18:27:02.976Z,9.80
2018-12-09T18:29:31.578Z,9.80
2018-12-09T18:31:59.889Z,9.70
2018-12-09T18:34:28.025Z,9.80
2018-12-09T18:36:56.622Z,9.80
2018-12-09T18:39:24.967Z,9.70
2018-12-09T18:41:53.117Z,9.80
2018-12-09T18:44:21.221Z,9.80
2018-12-09T18:46:49.292Z,9.80
2018-12-09T18:49:17.348Z,9.80
2018-12-09T18:51:45.789Z,9.80
2018-12-09T18:54:13.928Z,9.80
2018-12-09T18:56:42.058Z,9.80
2018-12-09T18:59:10.284Z,9.80
2018-12-09T19:01:38.428Z,9.80
2018-12-09T19:04:06.565Z,9.90
2018-12-09T19:06:34.977Z,9.80
2018-12-09T19:09:03.496Z,9.80
2018-12-09T19:11:31.790Z,9.80
2018-12-09T19:14:00.349Z,9.80
2018-12-09T19:16:28.488Z,9.80
2018-12-09T19:18:56.584Z,9.80
2018-12-09T19:21:25.084Z,9.80
2018-12-09T19:23:53.224Z,9.80
2018-12-09T19:26:21.441Z,9.80
2018-12-09T19:28:49.904Z,9.70
2018-12-09T19:31:18.032Z,9.70
2018-12-09T19:33:46.110Z,9.70
2018-12-09T19:36:14.530Z,9.70
2018-12-09T19:38:42.673Z,9.60
2018-12-09T19:41:10.828Z,9.60
2018-12-09T19:43:39.358Z,9.60
2018-12-09T19:46:07.502Z,9.60
2018-12-09T19:48:35.745Z,9.60
2018-12-09T19:51:04.289Z,9.60
2018-12-09T19:53:32.506Z,9.60
2018-12-09T19:56:00.684Z,9.50
2018-12-09T19:58:29.228Z,9.50
2018-12-09T20:00:57.300Z,9.50
2018-12-09T20:03:25.470Z,9.50
2018-12-09T20:05:53.753Z,9.50
2018-12-09T20:08:21.837Z,9.40
2018-12-09T20:10:50.009Z,9.40
2018-12-09T20:13:18.174Z,9.40
2018-12-09T20:15:46.300Z,9.40
2018-12-09T20:18:14.385Z,9.30
2018-12-09T20:20:42.630Z,9.30
2018-12-09T20:23:10.685Z,9.30
2018-12-09T20:25:39.407Z,9.30
2018-12-09T20:28:07.926Z,9.20
2018-12-09T20:30:36.101Z,9.20
2018-12-09T20:33:04.317Z,9.10
2018-12-09T20:35:32.965Z,9.10
2018-12-09T20:38:01.091Z,9.10
2018-12-09T20:40:29.317Z,9.10
2018-12-09T20:42:57.901Z,9.10
2018-12-09T20:45:26.041Z,9.00
2018-12-09T20:47:54.492Z,9.00
2018-12-09T20:50:22.694Z,9.00
2018-12-09T20:52:50.774Z,9.00
2018-12-09T20:55:18.925Z,9.00
2018-12-09T20:57:47.344Z,9.00
2018-12-09T21:00:15.652Z,9.00
2018-12-09T21:02:43.712Z,9.00
2018-12-09T21:05:11.931Z,9.00
2018-12-09T21:07:40.009Z,9.00
2018-12-09T21:10:10.224Z,9.00
2018-12-09T21:12:38.332Z,9.00
2018-12-09T21:15:07.107Z,9.00
2018-12-09T21:17:35.474Z,9.00
2018-12-09T21:20:03.872Z,9.00
2018-12-09T21:22:32.025Z,9.00
2018-12-09T21:25:00.162Z,9.00
2018-12-09T21:27:28.378Z,9.00
2018-12-09T21:29:56.505Z,9.10
2018-12-09T21:32:24.656Z,9.10
2018-12-09T21:34:52.793Z,9.00
2018-12-09T21:37:20.971Z,9.00
2018-12-09T21:39:49.240Z,9.00
2018-12-09T21:42:17.481Z,9.00
2018-12-09T21:44:45.857Z,9.00
2018-12-09T21:47:13.932Z,9.00
2018-12-09T21:49:42.385Z,9.00
2018-12-09T21:52:10.645Z,9.00
2018-12-09T21:54:38.942Z,9.00
2018-12-09T21:57:07.348Z,8.90
2018-12-09T21:59:35.500Z,9.00
2018-12-09T22:02:03.844Z,9.00
2018-12-09T22:04:32.034Z,9.00
2018-12-09T22:07:00.182Z,8.90
2018-12-09T22:09:28.257Z,9.00
2018-12-09T22:11:56.416Z,9.00
2018-12-09T22:14:24.579Z,9.00
2018-12-09T22:16:52.716Z,9.00
2018-12-09T22:19:21.356Z,9.00
2018-12-09T22:21:49.506Z,9.00
2018-12-09T22:24:17.652Z,9.00
2018-12-09T22:26:46.158Z,9.00
2018-12-09T22:29:14.376Z,9.00
2018-12-09T22:31:42.640Z,9.00
2018-12-09T22:34:11.061Z,9.00
2018-12-09T22:36:39.324Z,8.90
2018-12-09T22:39:07.857Z,9.00
2018-12-09T22:41:36.373Z,8.90
2018-12-09T22:44:04.630Z,8.90
2018-12-09T22:46:33.076Z,8.90
2018-12-09T22:49:01.366Z,8.80
2018-12-09T22:51:29.799Z,8.90
2018-12-09T22:53:57.938Z,8.80
2018-12-09T22:56:26.356Z,8.80
2018-12-09T22:58:54.428Z,8.80
2018-12-09T23:01:22.632Z,8.80
2018-12-09T23:03:51.077Z,8.70
2018-12-09T23:06:19.276Z,8.80
2018-12-09T23:08:47.424Z,8.70
2018-12-09T23:11:15.886Z,8.70
2018-12-09T23:13:44.044Z,8.70
2018-12-09T23:16:12.212Z,8.70
2018-12-09T23:18:40.644Z,8.60
2018-12-09T23:21:08.783Z,8.70
2018-12-09T23:23:36.895Z,8.60
2018-12-09T23:26:05.592Z,8.60
2018-12-09T23:28:33.670Z,8.60
2018-12-09T23:31:01.730Z,8.60
2018-12-09T23:33:30.273Z,8.50
2018-12-09T23:35:58.384Z,8.50
2018-12-09T23:38:26.448Z,8.50
2018-12-09T23:40:54.532Z,8.40
2018-12-09T23:43:22.593Z,8.40
2018-12-09T23:45:50.770Z,8.40
2018-12-09T23:48:19.276Z,8.40
2018-12-09T23:50:47.426Z,8.30
2018-12-09T23:53:15.510Z,8.30
2018-12-09T23:55:43.966Z,8.30
2018-12-09T23:58:12.097Z,8.30
